Portada
METAR-TAF:

METAR-TAF

Aeropuertos :

Anchorage, Alaska, Estados Unidos

latitud: 61-13N, longitud: 149-51W, altitud: 42 m

Observación

El informe se hizo hace 27 minutos, a las 08:08 UTC
Viento 6 kt del norte
Temperatura -4°C
Humedad 80%
Presión 994 hPa
Visibilidad: 3.2 km
Cielo cubierto a una altura de 2400 ft
poca nieve, neblina

METAR: PAMR 280808Z 01006KT 2SM -SN BR OVC024 M04/M07 A2936 RMK AO2 P0000 T10441067

Hora: 23:35 (08:35 UTC)


TAF: falta

Observaciones y pronósticos meteorológicos de más de 4000 aeropuertos (mensajes METAR y TAF).

Los puntos amarillos y rojos representan las estaciones disponibles.

Ponga el ratón en el punto deseado para ver el nombre de la estación.

Haga clic para ver las observaciones y los pronósticos meteorológicos.

Para cambiar el mapa : haga clic en los botones verdes con una cruz de color negro para hacer un zoom, en el botón verde con un guión para alejar o en las flechas verdes para mapas adyacentes.


METAR-TAF: